createdAt,value
2019-02-08T00:00:36.963Z,20.40
2019-02-08T00:03:06.921Z,21.57
2019-02-08T00:05:35.796Z,25.73
2019-02-08T00:08:05.166Z,19.37
2019-02-08T00:10:34.084Z,21.00
2019-02-08T00:13:02.917Z,20.90
2019-02-08T00:15:31.817Z,24.87
2019-02-08T00:18:00.713Z,23.50
2019-02-08T00:20:29.617Z,23.30
2019-02-08T00:22:58.529Z,24.73
2019-02-08T00:25:27.454Z,23.50
2019-02-08T00:27:56.757Z,20.80
2019-02-08T00:30:28.098Z,26.43
2019-02-08T00:32:57.097Z,19.97
2019-02-08T00:35:33.485Z,24.37
2019-02-08T00:38:01.859Z,26.23
2019-02-08T00:40:30.794Z,26.10
2019-02-08T00:42:59.998Z,22.47
2019-02-08T00:45:28.905Z,24.97
2019-02-08T00:47:57.807Z,24.30
2019-02-08T00:50:30.691Z,25.60
2019-02-08T00:52:59.516Z,27.43
2019-02-08T00:55:28.423Z,25.40
2019-02-08T00:57:57.730Z,25.50
2019-02-08T01:00:26.747Z,25.57
2019-02-08T01:02:56.110Z,23.00
2019-02-08T01:05:27.095Z,25.40
2019-02-08T01:07:56.314Z,22.13
2019-02-08T01:10:27.893Z,23.67
2019-02-08T01:12:57.215Z,25.53
2019-02-08T01:15:27.701Z,23.40
2019-02-08T01:17:56.689Z,23.93
2019-02-08T01:20:26.408Z,26.90
2019-02-08T01:22:55.445Z,25.70
2019-02-08T01:25:26.756Z,20.27
2019-02-08T01:27:55.601Z,20.23
2019-02-08T01:30:26.776Z,23.43
2019-02-08T01:32:55.805Z,23.77
2019-02-08T01:35:24.997Z,24.17
2019-02-08T01:37:54.731Z,27.07
2019-02-08T01:40:28.846Z,25.13
2019-02-08T01:42:57.715Z,23.47
2019-02-08T01:45:28.895Z,22.23
2019-02-08T01:47:58.172Z,26.43
2019-02-08T01:50:28.833Z,26.63
2019-02-08T01:52:57.661Z,20.10
2019-02-08T01:55:26.800Z,25.23
2019-02-08T01:57:55.691Z,23.60
2019-02-08T02:00:30.263Z,27.40
2019-02-08T02:02:59.129Z,23.60
2019-02-08T02:05:27.971Z,29.67
2019-02-08T02:07:57.288Z,28.10
2019-02-08T02:10:34.195Z,25.90
2019-02-08T02:13:03.193Z,29.13
2019-02-08T02:15:32.248Z,30.27
2019-02-08T02:18:04.825Z,24.63
2019-02-08T02:20:36.006Z,31.13
2019-02-08T02:23:05.884Z,27.80
2019-02-08T02:25:34.877Z,27.63
2019-02-08T02:28:04.301Z,30.70
2019-02-08T02:30:35.304Z,28.43
2019-02-08T02:33:06.072Z,27.40
2019-02-08T02:35:34.978Z,28.77
2019-02-08T02:38:03.974Z,29.83
2019-02-08T02:40:32.847Z,30.10
2019-02-08T02:43:01.718Z,27.23
2019-02-08T02:45:33.547Z,27.07
2019-02-08T02:48:02.478Z,20.13
2019-02-08T02:50:31.470Z,28.10
2019-02-08T02:53:00.469Z,34.10
2019-02-08T02:55:30.637Z,26.57
2019-02-08T02:57:59.616Z,35.37
2019-02-08T03:00:33.793Z,29.03
2019-02-08T03:03:02.790Z,31.27
2019-02-08T03:05:31.694Z,31.37
2019-02-08T03:08:00.617Z,28.00
2019-02-08T03:10:30.316Z,30.90
2019-02-08T03:12:59.237Z,32.87
2019-02-08T03:15:28.243Z,30.90
2019-02-08T03:17:57.080Z,32.83
2019-02-08T03:20:25.988Z,29.00
2019-02-08T03:22:54.825Z,35.53
2019-02-08T03:25:28.699Z,34.00
2019-02-08T03:27:57.755Z,31.63
2019-02-08T03:30:32.610Z,31.83
2019-02-08T03:33:01.458Z,28.60
2019-02-08T03:35:37.823Z,30.90
2019-02-08T03:38:06.804Z,32.13
2019-02-08T03:40:39.084Z,30.77
2019-02-08T03:43:08.393Z,44.73
2019-02-08T03:45:44.870Z,41.70
2019-02-08T03:48:13.972Z,43.63
2019-02-08T03:50:42.881Z,42.67
2019-02-08T03:53:11.760Z,33.83
2019-02-08T03:55:40.629Z,34.63
2019-02-08T03:58:09.796Z,35.20
2019-02-08T04:00:43.690Z,39.50
2019-02-08T04:03:12.623Z,40.87
2019-02-08T04:05:41.459Z,29.00
2019-02-08T04:08:10.468Z,22.70
2019-02-08T04:10:39.435Z,22.40
2019-02-08T04:13:08.287Z,20.73
2019-02-08T04:15:37.280Z,17.57
2019-02-08T04:18:06.302Z,18.67
2019-02-08T04:20:35.178Z,16.33
2019-02-08T04:23:04.402Z,18.93
2019-02-08T04:25:33.282Z,17.80
2019-02-08T04:28:02.133Z,14.77
2019-02-08T04:30:32.178Z,13.90
2019-02-08T04:33:02.165Z,13.17
2019-02-08T04:35:31.050Z,11.10
2019-02-08T04:37:59.933Z,12.13
2019-02-08T04:40:29.400Z,11.53
2019-02-08T04:42:58.513Z,11.40
2019-02-08T04:45:27.577Z,9.77
2019-02-08T04:47:56.514Z,10.70
2019-02-08T04:50:29.447Z,11.67
2019-02-08T04:52:58.532Z,11.57
2019-02-08T04:55:27.382Z,10.63
2019-02-08T04:57:56.320Z,10.13
2019-02-08T05:00:27.822Z,11.57
2019-02-08T05:02:57.167Z,7.83
2019-02-08T05:05:26.331Z,7.57
2019-02-08T05:07:55.262Z,10.77
2019-02-08T05:10:26.936Z,9.37
2019-02-08T05:12:59.269Z,18.47
2019-02-08T05:15:28.366Z,7.03
2019-02-08T05:17:57.288Z,6.40
2019-02-08T05:20:28.782Z,6.37
2019-02-08T05:22:57.730Z,7.37
2019-02-08T05:25:26.738Z,5.73
2019-02-08T05:27:55.643Z,6.07
2019-02-08T05:30:30.167Z,4.73
2019-02-08T05:32:59.079Z,6.17
2019-02-08T05:35:28.257Z,4.60
2019-02-08T05:37:57.162Z,4.70
2019-02-08T05:40:26.213Z,5.60
2019-02-08T05:42:55.308Z,5.40
2019-02-08T05:45:25.580Z,4.33
2019-02-08T05:47:54.457Z,5.17
2019-02-08T05:50:25.204Z,3.97
2019-02-08T05:52:54.104Z,4.70
2019-02-08T05:55:28.006Z,5.67
2019-02-08T05:57:57.043Z,3.63
2019-02-08T06:00:41.993Z,4.83
2019-02-08T06:03:10.826Z,5.30
2019-02-08T06:05:40.412Z,5.33
2019-02-08T06:08:09.647Z,5.63
2019-02-08T06:10:38.529Z,3.83
2019-02-08T06:13:08.907Z,4.90
2019-02-08T06:15:38.413Z,4.77
2019-02-08T06:18:08.499Z,5.03
2019-02-08T06:20:38.135Z,4.77
2019-02-08T06:23:07.875Z,4.90
2019-02-08T06:25:36.906Z,6.37
2019-02-08T06:28:06.441Z,5.07
2019-02-08T06:30:36.343Z,5.30
2019-02-08T06:33:05.972Z,5.83
2019-02-08T06:35:34.967Z,5.33
2019-02-08T06:38:03.939Z,7.97
2019-02-08T06:40:35.548Z,6.03
2019-02-08T06:43:05.654Z,6.97
2019-02-08T06:45:35.681Z,9.57
2019-02-08T06:48:05.966Z,10.43
2019-02-08T06:50:34.929Z,6.63
2019-02-08T06:53:03.804Z,8.73
2019-02-08T06:55:32.672Z,8.20
2019-02-08T06:58:06.148Z,9.07
2019-02-08T07:00:45.371Z,8.53
2019-02-08T07:03:15.830Z,5.37
2019-02-08T07:06:02.273Z,6.17
2019-02-08T07:08:32.699Z,5.30
2019-02-08T07:11:05.819Z,5.83
2019-02-08T07:13:51.430Z,5.00
2019-02-08T07:16:24.582Z,5.93
2019-02-08T07:18:55.071Z,4.80
2019-02-08T07:21:31.432Z,5.20
2019-02-08T07:24:07.803Z,5.97
2019-02-08T07:26:38.212Z,5.50
2019-02-08T07:29:08.753Z,5.33
2019-02-08T07:31:56.333Z,4.90
2019-02-08T07:34:35.629Z,4.00
2019-02-08T07:37:09.358Z,4.17
2019-02-08T07:39:45.682Z,4.50
2019-02-08T07:42:34.053Z,3.83
2019-02-08T07:45:11.698Z,4.37
2019-02-08T07:47:42.170Z,4.27
2019-02-08T07:50:15.499Z,4.03
2019-02-08T07:52:45.953Z,5.03
2019-02-08T07:55:28.092Z,3.33
2019-02-08T07:58:13.793Z,3.70
2019-02-08T08:00:59.210Z,3.53
2019-02-08T08:03:29.849Z,5.83
2019-02-08T08:06:08.918Z,4.27
2019-02-08T08:08:42.407Z,4.57
2019-02-08T08:11:13.057Z,3.57
2019-02-08T08:13:59.185Z,3.73
2019-02-08T08:16:30.064Z,4.07
2019-02-08T08:19:03.241Z,4.40
2019-02-08T08:21:49.852Z,3.90
2019-02-08T08:24:26.119Z,5.03
2019-02-08T08:26:59.818Z,6.97
2019-02-08T08:29:46.083Z,5.90
2019-02-08T08:32:17.310Z,6.33
2019-02-08T08:35:07.158Z,6.77
2019-02-08T08:37:53.662Z,7.03
2019-02-08T08:40:41.546Z,6.57
2019-02-08T08:43:13.327Z,5.07
2019-02-08T08:45:51.035Z,4.77
2019-02-08T08:48:22.862Z,7.10
2019-02-08T08:51:03.678Z,4.80
2019-02-08T08:53:55.056Z,7.30
2019-02-08T08:56:43.277Z,5.23
2019-02-08T08:59:15.123Z,4.03
2019-02-08T09:02:03.138Z,3.93
2019-02-08T09:04:37.839Z,4.63
2019-02-08T09:07:18.321Z,4.63
2019-02-08T09:10:12.978Z,4.87
2019-02-08T09:12:50.328Z,6.80
2019-02-08T09:15:38.607Z,5.33
2019-02-08T09:18:25.197Z,6.30
2019-02-08T09:21:06.027Z,9.47
2019-02-08T09:23:40.363Z,7.20
2019-02-08T09:26:17.802Z,5.47
2019-02-08T09:29:08.850Z,4.93
2019-02-08T09:31:40.719Z,5.30
2019-02-08T09:34:30.408Z,5.60
2019-02-08T09:37:05.177Z,4.57
2019-02-08T09:39:59.602Z,5.93
2019-02-08T09:42:37.193Z,6.83
2019-02-08T09:45:40.259Z,5.33
2019-02-08T09:48:23.995Z,6.67
2019-02-08T09:51:05.878Z,4.50
2019-02-08T09:53:40.416Z,4.70
2019-02-08T09:56:39.023Z,6.83
2019-02-08T09:59:29.986Z,5.87
2019-02-08T10:02:16.513Z,4.40
2019-02-08T10:04:57.158Z,5.03
2019-02-08T10:07:55.748Z,4.70
2019-02-08T10:10:50.026Z,5.60
2019-02-08T10:13:41.226Z,7.47
2019-02-08T10:16:44.168Z,5.60
2019-02-08T10:19:24.907Z,7.63
2019-02-08T10:22:18.706Z,3.93
2019-02-08T10:24:50.517Z,5.27
2019-02-08T10:27:22.362Z,5.33
2019-02-08T10:30:02.762Z,3.30
2019-02-08T10:32:52.242Z,3.40
2019-02-08T10:35:44.487Z,5.50
2019-02-08T10:38:35.525Z,1.83
2019-02-08T10:41:30.266Z,2.77
2019-02-08T10:44:08.390Z,8.33
2019-02-08T10:46:40.165Z,6.83
2019-02-08T10:49:23.819Z,5.53
2019-02-08T10:52:28.492Z,6.57
2019-02-08T10:55:34.645Z,7.80
2019-02-08T10:58:39.110Z,5.83
2019-02-08T11:01:28.536Z,5.57
2019-02-08T11:04:09.151Z,6.63
2019-02-08T11:06:57.446Z,6.57
2019-02-08T11:10:02.275Z,8.50
2019-02-08T11:13:06.903Z,4.27
2019-02-08T11:15:43.942Z,3.10
2019-02-08T11:18:34.408Z,5.53
2019-02-08T11:21:03.258Z,4.40
2019-02-08T11:23:32.173Z,6.37
2019-02-08T11:26:01.018Z,7.57
2019-02-08T11:28:29.936Z,5.17
2019-02-08T11:30:58.756Z,7.43
2019-02-08T11:33:27.692Z,6.90
2019-02-08T11:35:56.557Z,4.63
2019-02-08T11:38:25.457Z,3.00
2019-02-08T11:40:54.311Z,7.20
2019-02-08T11:43:23.183Z,7.07
2019-02-08T11:45:52.390Z,6.40
2019-02-08T11:48:21.317Z,2.87
2019-02-08T11:50:50.203Z,7.27
2019-02-08T11:53:19.140Z,4.87
2019-02-08T11:55:48.007Z,4.73
2019-02-08T11:58:16.857Z,3.93
2019-02-08T12:00:47.340Z,4.80
2019-02-08T12:03:16.204Z,4.47
2019-02-08T12:05:45.206Z,5.53
2019-02-08T12:08:14.062Z,4.20
2019-02-08T12:10:42.887Z,3.83
2019-02-08T12:13:11.766Z,7.00
2019-02-08T12:15:40.664Z,4.03
2019-02-08T12:18:09.587Z,4.67
2019-02-08T12:20:38.444Z,4.93
2019-02-08T12:23:07.330Z,6.67
2019-02-08T12:25:36.194Z,4.10
2019-02-08T12:28:05.279Z,2.50
2019-02-08T12:30:36.998Z,7.40
2019-02-08T12:33:06.069Z,4.70
2019-02-08T12:35:34.933Z,5.27
2019-02-08T12:38:03.853Z,3.10
2019-02-08T12:40:32.706Z,3.90
2019-02-08T12:43:01.592Z,3.10
2019-02-08T12:45:30.661Z,4.30
2019-02-08T12:47:59.547Z,5.17
2019-02-08T12:50:28.443Z,3.83
2019-02-08T12:52:57.367Z,4.03
2019-02-08T12:55:26.261Z,3.27
2019-02-08T12:57:55.087Z,4.50
2019-02-08T13:00:26.161Z,1.70
2019-02-08T13:02:55.125Z,3.10
2019-02-08T13:05:24.377Z,4.03
2019-02-08T13:07:53.738Z,5.67
2019-02-08T13:10:31.123Z,3.23
2019-02-08T13:13:00.037Z,3.33
2019-02-08T13:15:28.938Z,3.27
2019-02-08T13:17:57.799Z,6.03
2019-02-08T13:20:26.715Z,7.60
2019-02-08T13:22:55.588Z,4.80
2019-02-08T13:25:24.633Z,52.87
2019-02-08T13:27:53.485Z,47.63
2019-02-08T13:30:27.956Z,4.20
2019-02-08T13:32:56.911Z,2.50
2019-02-08T13:35:25.922Z,3.90
2019-02-08T13:37:54.843Z,5.00
2019-02-08T13:40:25.686Z,4.90
2019-02-08T13:42:55.422Z,3.33
2019-02-08T13:45:24.824Z,3.20
2019-02-08T13:47:53.787Z,3.03
2019-02-08T13:50:27.848Z,4.53
2019-02-08T13:52:56.810Z,3.80
2019-02-08T13:55:26.418Z,4.53
2019-02-08T13:57:55.312Z,3.10
2019-02-08T14:00:35.790Z,3.83
2019-02-08T14:03:06.007Z,2.87
2019-02-08T14:05:35.006Z,2.47
2019-02-08T14:08:04.087Z,3.80
2019-02-08T14:10:33.018Z,4.17
2019-02-08T14:13:01.863Z,3.73
2019-02-08T14:15:31.008Z,3.90
2019-02-08T14:17:59.887Z,3.17
2019-02-08T14:20:29.466Z,3.33
2019-02-08T14:22:58.329Z,4.60
2019-02-08T14:25:27.205Z,5.00
2019-02-08T14:27:57.035Z,2.33
2019-02-08T14:30:31.583Z,2.87
2019-02-08T14:33:00.450Z,1.03
2019-02-08T14:35:29.424Z,4.70
2019-02-08T14:38:00.682Z,3.37
2019-02-08T14:40:30.875Z,4.20
2019-02-08T14:42:59.811Z,5.50
2019-02-08T14:45:28.673Z,2.57
2019-02-08T14:47:57.669Z,4.43
2019-02-08T14:50:28.590Z,4.70
2019-02-08T14:52:57.756Z,2.37
2019-02-08T14:55:26.892Z,1.60
2019-02-08T14:57:58.462Z,3.07
2019-02-08T15:00:27.368Z,3.20
2019-02-08T15:02:56.302Z,1.47
2019-02-08T15:05:25.167Z,3.40
2019-02-08T15:07:54.084Z,1.27
2019-02-08T15:10:40.549Z,3.13
2019-02-08T15:13:09.551Z,3.37
2019-02-08T15:15:38.453Z,2.03
2019-02-08T15:18:07.618Z,4.33
2019-02-08T15:20:38.027Z,3.13
2019-02-08T15:23:07.026Z,0.97
2019-02-08T15:25:35.889Z,3.40
2019-02-08T15:28:04.958Z,2.20
2019-02-08T15:30:35.587Z,2.67
2019-02-08T15:33:05.142Z,1.23
2019-02-08T15:35:35.153Z,2.53
2019-02-08T15:38:05.152Z,1.03
2019-02-08T15:40:45.845Z,3.17
2019-02-08T15:43:16.848Z,3.13
2019-02-08T15:45:49.015Z,3.00
2019-02-08T15:48:17.967Z,3.33
2019-02-08T15:50:46.822Z,2.53
2019-02-08T15:53:15.848Z,4.83
2019-02-08T15:55:53.320Z,2.17
2019-02-08T15:58:22.176Z,1.80
2019-02-08T16:00:51.125Z,3.33
2019-02-08T16:03:20.061Z,3.23
2019-02-08T16:05:49.134Z,6.07
2019-02-08T16:08:18.088Z,3.00
2019-02-08T16:10:47.001Z,2.77
2019-02-08T16:13:15.887Z,0.83
2019-02-08T16:15:44.914Z,4.30
2019-02-08T16:18:13.884Z,1.80
2019-02-08T16:20:43.056Z,1.73
2019-02-08T16:23:12.152Z,2.00
2019-02-08T16:25:41.167Z,5.80
2019-02-08T16:28:10.050Z,4.57
2019-02-08T16:30:40.096Z,7.00
2019-02-08T16:33:09.707Z,3.97
2019-02-08T16:35:38.921Z,4.60
2019-02-08T16:38:08.196Z,5.40
2019-02-08T16:40:37.184Z,7.13
2019-02-08T16:43:06.775Z,6.93
2019-02-08T16:45:37.582Z,6.03
2019-02-08T16:48:11.660Z,9.80
2019-02-08T16:50:41.925Z,7.87
2019-02-08T16:53:11.907Z,9.23
2019-02-08T16:55:40.990Z,13.30
2019-02-08T16:58:11.846Z,9.97
2019-02-08T17:00:42.578Z,12.20
2019-02-08T17:03:14.834Z,12.27
2019-02-08T17:05:44.033Z,17.83
2019-02-08T17:08:13.054Z,18.30
2019-02-08T17:10:42.147Z,14.67
2019-02-08T17:13:11.299Z,15.60
2019-02-08T17:15:40.307Z,20.70
2019-02-08T17:18:10.388Z,16.60
2019-02-08T17:20:44.710Z,17.20
2019-02-08T17:23:13.842Z,16.43
2019-02-08T17:25:42.886Z,20.77
2019-02-08T17:28:11.977Z,16.63
2019-02-08T17:30:41.185Z,21.17
2019-02-08T17:33:10.619Z,23.33
2019-02-08T17:35:39.619Z,22.40
2019-02-08T17:38:11.052Z,25.27
2019-02-08T17:40:42.903Z,20.00
2019-02-08T17:43:11.842Z,23.03
2019-02-08T17:45:40.953Z,24.97
2019-02-08T17:48:12.801Z,22.77
2019-02-08T17:50:41.925Z,23.63
2019-02-08T17:53:10.856Z,23.33
2019-02-08T17:55:39.837Z,24.13
2019-02-08T17:58:08.854Z,25.53
2019-02-08T18:00:41.747Z,27.73
2019-02-08T18:03:10.754Z,25.20
2019-02-08T18:05:39.824Z,27.83
2019-02-08T18:08:08.791Z,28.63
2019-02-08T18:10:37.798Z,31.97
2019-02-08T18:13:07.881Z,24.67
2019-02-08T18:15:36.826Z,22.77
2019-02-08T18:18:08.438Z,28.20
2019-02-08T18:20:42.694Z,28.57
2019-02-08T18:23:11.857Z,27.47
2019-02-08T18:25:40.922Z,27.50
2019-02-08T18:28:11.297Z,26.53
2019-02-08T18:30:40.587Z,29.20
2019-02-08T18:33:11.174Z,26.40
2019-02-08T18:35:40.054Z,25.13
2019-02-08T18:38:09.048Z,28.70
2019-02-08T18:40:37.986Z,30.70
2019-02-08T18:43:06.838Z,29.70
2019-02-08T18:45:37.339Z,26.47
2019-02-08T18:48:06.997Z,33.30
2019-02-08T18:50:38.394Z,26.90
2019-02-08T18:53:07.650Z,30.80
2019-02-08T18:55:36.661Z,28.07
2019-02-08T18:58:06.121Z,28.33
2019-02-08T19:00:43.728Z,27.87
2019-02-08T19:03:12.787Z,26.87
2019-02-08T19:05:42.023Z,29.10
2019-02-08T19:08:11.009Z,28.57
2019-02-08T19:10:43.612Z,27.87
2019-02-08T19:13:12.514Z,26.90
2019-02-08T19:15:41.559Z,27.13
2019-02-08T19:18:10.724Z,29.30
2019-02-08T19:20:40.335Z,32.77
2019-02-08T19:23:09.363Z,24.07
2019-02-08T19:25:43.960Z,29.40
2019-02-08T19:28:14.010Z,27.27
2019-02-08T19:30:44.503Z,30.07
2019-02-08T19:33:13.605Z,32.23
2019-02-08T19:35:42.547Z,26.53
2019-02-08T19:38:11.767Z,27.13
2019-02-08T19:40:48.050Z,28.53
2019-02-08T19:43:16.948Z,26.60
2019-02-08T19:45:45.963Z,27.33
2019-02-08T19:48:14.838Z,31.00
2019-02-08T19:50:45.695Z,31.20
2019-02-08T19:53:14.541Z,31.60
2019-02-08T19:55:43.753Z,30.13
2019-02-08T19:58:12.821Z,29.53
2019-02-08T20:00:43.462Z,33.83
2019-02-08T20:03:13.859Z,31.97
2019-02-08T20:05:42.789Z,27.27
2019-02-08T20:08:13.184Z,32.37
2019-02-08T20:10:47.882Z,29.53
2019-02-08T20:13:16.906Z,27.63
2019-02-08T20:15:46.008Z,29.33
2019-02-08T20:18:15.254Z,37.00
2019-02-08T20:20:44.271Z,28.37
2019-02-08T20:23:13.142Z,30.30
2019-02-08T20:25:42.416Z,41.40
2019-02-08T20:28:11.398Z,30.53
2019-02-08T20:30:40.378Z,33.67
2019-02-08T20:33:09.492Z,31.30
2019-02-08T20:35:38.615Z,30.93
2019-02-08T20:38:07.689Z,36.63
2019-02-08T20:40:39.515Z,36.40
2019-02-08T20:43:11.632Z,32.57
2019-02-08T20:45:40.859Z,34.77
2019-02-08T20:48:12.346Z,34.20
2019-02-08T20:50:41.325Z,31.87
2019-02-08T20:53:10.592Z,33.00
2019-02-08T20:55:39.729Z,27.13
2019-02-08T20:58:10.963Z,31.20
2019-02-08T21:00:42.785Z,33.83
2019-02-08T21:03:13.505Z,32.37
2019-02-08T21:05:43.607Z,39.03
2019-02-08T21:08:13.367Z,34.80
2019-02-08T21:10:43.046Z,32.00
2019-02-08T21:13:12.412Z,34.63
2019-02-08T21:15:41.780Z,33.33
2019-02-08T21:18:11.079Z,30.70
2019-02-08T21:20:40.575Z,31.37
2019-02-08T21:23:10.169Z,37.23
2019-02-08T21:25:40.642Z,33.67
2019-02-08T21:28:09.658Z,33.20
2019-02-08T21:30:38.499Z,36.33
2019-02-08T21:33:09.612Z,32.50
2019-02-08T21:35:38.743Z,29.90
2019-02-08T21:38:08.819Z,33.40
2019-02-08T21:40:38.152Z,34.33
2019-02-08T21:43:07.785Z,36.53
2019-02-08T21:45:41.452Z,34.17
2019-02-08T21:48:11.508Z,36.90
2019-02-08T21:50:40.759Z,30.77
2019-02-08T21:53:09.634Z,33.13
2019-02-08T21:55:38.773Z,32.47
2019-02-08T21:58:07.916Z,33.00
2019-02-08T22:00:39.077Z,36.50
2019-02-08T22:03:08.384Z,34.37
2019-02-08T22:05:49.295Z,40.63
2019-02-08T22:08:18.188Z,37.47
2019-02-08T22:10:47.105Z,40.47
2019-02-08T22:13:15.968Z,40.40
2019-02-08T22:15:45.770Z,34.47
2019-02-08T22:18:14.751Z,38.60
2019-02-08T22:20:43.628Z,35.10
2019-02-08T22:23:12.578Z,38.43
2019-02-08T22:25:41.512Z,35.93
2019-02-08T22:28:10.435Z,37.03
2019-02-08T22:30:39.539Z,36.23
2019-02-08T22:33:10.495Z,33.20
2019-02-08T22:35:39.649Z,39.33
2019-02-08T22:38:09.197Z,42.77
2019-02-08T22:40:38.062Z,39.83
2019-02-08T22:43:07.379Z,41.63
2019-02-08T22:45:37.979Z,38.53
2019-02-08T22:48:07.314Z,44.57
2019-02-08T22:50:36.406Z,38.63
2019-02-08T22:53:06.558Z,45.67
2019-02-08T22:55:36.707Z,43.23
2019-02-08T22:58:07.846Z,39.73
2019-02-08T23:00:42.767Z,40.00
2019-02-08T23:03:26.252Z,44.43
2019-02-08T23:05:55.186Z,43.50
2019-02-08T23:08:24.033Z,43.00
2019-02-08T23:10:52.932Z,39.77
2019-02-08T23:13:21.790Z,43.63
2019-02-08T23:15:50.737Z,44.20
2019-02-08T23:18:19.606Z,41.57
2019-02-08T23:20:48.616Z,42.03
2019-02-08T23:23:17.484Z,42.63
2019-02-08T23:25:46.403Z,48.57
2019-02-08T23:28:15.254Z,50.67
2019-02-08T23:30:44.122Z,46.20
2019-02-08T23:33:13.129Z,47.70
2019-02-08T23:35:43.260Z,48.87
2019-02-08T23:38:12.369Z,44.33
2019-02-08T23:40:41.266Z,47.97
2019-02-08T23:43:10.325Z,49.20
2019-02-08T23:45:39.183Z,55.27
2019-02-08T23:48:08.087Z,43.67
2019-02-08T23:50:36.999Z,48.20
2019-02-08T23:53:07.053Z,42.87
2019-02-08T23:55:35.928Z,50.00
2019-02-08T23:58:05.923Z,46.03
